• Join FlightAware (Why Join?)
  • Login
  • US Flag GB Flag 
21:39 EDT


 

Airport Tracker/Info


-or-


 

Live Flight TrackerFlight Track Log ✈ GJS3618 ✈ 02-Sep-2013 ✈ KOMA - KDEN

Flight Track Log - Related Links

Times and Time Zones

All times are in EDT time to prevent confusion due to time zone crossing. See the GJS3618 flight status page for this flight to view local times or setup timezone preferences in your user account.

Time Position Orientation Groundspeed Altitude Reporting Facility
EDT Latitude Longitude Course Direction KTS MPH feet Rate Location/Type
07:28 41.3144 -95.9006 316° Northwest 147 169 1,400  Level Minneapolis Center
07:30 41.3522 -95.9497 316° Northwest 207 238 4,000 2,160 Climbing Minneapolis Center
07:31 41.3508 -96.0436 269° West 268 308 6,300 2,280 Climbing Minneapolis Center
07:32 41.3558 -96.1311 274° West 256 295 8,600 2,400 Climbing Minneapolis Center
07:33 41.3572 -96.2372 271° West 278 320 11,200 1,860 Climbing Minneapolis Center
07:34 41.3589 -96.3511 271° West 299 344 12,400 1,380 Climbing Minneapolis Center
07:35 41.3611 -96.4839 271° West 347 399 14,100 1,800 Climbing Minneapolis Center
07:36 41.3631 -96.6186 271° West 361 415 16,100 1,800 Climbing Minneapolis Center
07:37 41.3656 -96.7539 271° West 366 421 17,700 1,560 Climbing Minneapolis Center
07:38 41.3672 -96.8942 271° West 375 432 19,300 1,500 Climbing Minneapolis Center
07:39 41.3686 -97.0358 271° West 381 438 20,800 1,200 Climbing Minneapolis Center
07:40 41.3700 -97.1844 271° West 395 455 21,800 960 Climbing Minneapolis Center
07:41 41.3722 -97.3375 271° West 409 471 22,800 1,080 Climbing Minneapolis Center
07:42 41.3728 -97.4947 270° West 420 483 24,000 1,260 Climbing Minneapolis Center
07:43 41.3742 -97.6525 271° West 424 488 25,400 1,380 Climbing Minneapolis Center
07:44 41.3742 -97.8081 270° West 423 487 26,800 1,140 Climbing Minneapolis Center
07:45 41.3742 -97.9631 270° West 421 484 27,800 1,080 Climbing Minneapolis Center
07:46 41.3758 -98.1383 271° West 424 488 29,000 1,080 Climbing Minneapolis Center
07:47 41.3756 -98.2961 270° West 427 491 30,000 1,020 Climbing Minneapolis Center
07:48 41.3469 -98.4708 258° West 446 513 31,100 1,020 Climbing Minneapolis Center
07:49 41.3058 -98.6286 251° West 453 521 32,100 960 Climbing Minneapolis Center
07:50 41.2722 -98.7861 254° West 449 517 33,100 960 Climbing Minneapolis Center
07:51 41.2311 -98.9472 251° West 457 526 34,100 960 Climbing Minneapolis Center
07:52 41.1911 -99.1042 251° West 451 519 35,100 960 Climbing Minneapolis Center
07:53 41.1506 -99.2647 252° West 445 512 36,100 960 Climbing Minneapolis Center
07:54 41.1114 -99.4186 251° West 442 509 37,100 840 Climbing Minneapolis Center
07:55 41.0725 -99.5686 251° West 435 501 37,800 420 Climbing Minneapolis Center
07:56 41.0339 -99.7211 251° West 435 501 38,000 60 Climbing Minneapolis Center
07:57 40.9939 -99.8772 251° West 443 510 38,000  Level Minneapolis Center
07:58 40.9533 -100.0333 251° West 447 514 38,000  Level Minneapolis Center
07:59 40.9139 -100.1842 251° West 439 505 38,000  Level Minneapolis Center
08:00 40.8742 -100.3331 251° West 434 499 38,000  Level Minneapolis Center
08:01 40.8344 -100.4817 251° West 431 496 38,000  Level Minneapolis Center
08:02 40.7794 -100.6786 250° West 434 499 38,000  Level Denver Center
08:03 40.7494 -100.8675 258° West 463 533 38,000  Level Denver Center
08:04 40.7272 -101.0164 259° West 440 506 38,000  Level Denver Center
08:05 40.7011 -101.1686 257° West 444 511 38,000  Level Denver Center
08:06 40.6744 -101.3244 257° West 453 521 38,000  Level Denver Center
08:07 40.6422 -101.5081 257° West 461 531 38,000  Level Denver Center
08:08 40.6142 -101.6669 257° West 464 534 38,000  Level Denver Center
08:09 40.5856 -101.8250 257° West 465 535 38,000  Level Denver Center
08:10 40.5517 -102.0103 257° West 466 536 38,000  Level Denver Center
08:11 40.5222 -102.1681 256° West 466 536 38,000  Level Denver Center
08:12 40.4936 -102.3278 257° West 468 539 38,000 -600 Level Denver Center
08:13 40.4583 -102.5142 256° West 471 542 36,900 -1,020 Descending Denver Center
08:14 40.4281 -102.6736 256° West 472 543 36,000 -960 Descending Denver Center
08:15 40.3964 -102.8411 256° West 474 545 35,000 -1,020 Descending Denver Center
08:16 40.3639 -103.0042 255° West 466 536 34,000 -1,440 Descending Denver Center
08:17 40.3331 -103.1700 256° West 468 539 32,100 -2,580 Descending Denver Center
08:18 40.3011 -103.3381 256° West 476 548 28,900 -3,240 Descending Denver Center
08:19 40.2694 -103.4994 256° West 462 532 25,600 -3,300 Descending Denver Center
08:20 40.2389 -103.6567 256° West 449 517 22,300 -3,000 Descending Denver Center
08:21 40.2097 -103.8119 256° West 419 482 19,600 -2,280 Descending Denver Center
08:22 40.1789 -103.9436 253° West 375 432 17,800 -1,920 Descending Denver Center
08:23 40.1567 -104.0711 257° West 360 414 15,800 -2,040 Descending Denver Center
08:24 40.1003 -104.1764 235° Southwest 353 406 13,700 -2,040 Descending Denver Center
08:25 40.0047 -104.1994 190° South 349 402 11,700 -1,800 Descending Denver Center
08:26 39.9431 -104.2889 228° Southwest 340 391 10,100 -900 Descending Denver Center
08:27 39.9078 -104.3756 242° Southwest 271 312 9,900 -840 Descending Denver Center
08:28 39.8833 -104.4167 232° Southwest 230 265 8,800 -1,800 Descending Denver TRACON
08:29 39.8833 -104.5000 270° West 213 245 7,000 -1,320 Descending Denver TRACON
08:30 39.8833 -104.5500 270° West 149 171 6,200 -780 Descending Denver TRACON
08:31 39.8833 -104.6167 270° West 146 168 5,500 -720 Descending Denver TRACON
08:33 39.8500 -104.6667 180° South  Level FlightAware Approximate
08:40 39.8617 -104.6732 180° South  Level Estimated
08:41 39.8617 -104.6732 180° South  Level Estimated
08:42 39.8617 -104.6732 180° South  Level Estimated